This is the latest recevied weather packets stored in our database for station/object LRBM. If no packets are shown the sender has not sent any weather packets the latest 10 day(s).
| Time | Temp. | Humidity | Pressure | Rain* | Wind** | Luminosity | Snow |
|---|---|---|---|---|---|---|---|
| 1788507217 | 22.22° C | 53% | 1018 hPa | - | - | - | - |
| 1788506315 | 21.11° C | 60% | 1018 hPa | - | - | - | - |
| 1788505416 | 21.11° C | 60% | 1018 hPa | - | - | - | - |
| 1788504516 | 20° C | 64% | 1018 hPa | - | - | - | - |
| 1788503615 | 20° C | 64% | 1018 hPa | - | - | - | - |
| 1788502716 | 17.78° C | 73% | 1018 hPa | - | - | - | - |
| 1788501816 | 17.78° C | 73% | 1018 hPa | - | - | - | - |
| 1788500916 | 17.22° C | 73% | 1018 hPa | - | - | - | - |
| 1788500016 | 17.22° C | 73% | 1018 hPa | - | - | - | - |
| 1788499116 | 16.11° C | 77% | 1018 hPa | - | - | - | - |
| 1788498216 | 16.11° C | 77% | 1018 hPa | - | - | - | - |
| 1788497316 | 15° C | 82% | 1018 hPa | - | - | - | - |
| 1788496416 | 15° C | 82% | 1018 hPa | - | - | - | - |
| 1788495516 | 13.89° C | 88% | 1018 hPa | - | - | - | - |
| 1788494615 | 13.89° C | 88% | 1018 hPa | - | - | - | - |
| 1788493715 | 15° C | 82% | 1018 hPa | - | - | - | - |
| 1788492816 | 15° C | 82% | 1018 hPa | - | - | - | - |
| 1788491916 | 15° C | 77% | 1018 hPa | - | - | - | - |
| 1788491015 | 15° C | 77% | 1018 hPa | - | - | - | - |
| 1788489216 | 16.11° C | 77% | 1018 hPa | - | - | - | - |
| 1788488315 | 15° C | 77% | 1018 hPa | - | - | - | - |
| 1788487416 | 15° C | 77% | 1018 hPa | - | - | - | - |
| 1788485616 | 16.11° C | 72% | 1018 hPa | - | - | - | - |
| 1788474815 | 17.78° C | 68% | 1017 hPa | - | - | - | - |
| 1788473916 | 18.89° C | 64% | 1017 hPa | - | - | - | - |
* Rain since midnight (hover to see other rain measurements)
** Current wind speed in m/s (hover to see current wind gust speed)